GRZ541 Details

Departure: Yellowknife Airport (CYZF)
Arrival: Ted Stevens Anchorage International Airport (PANC) at N/A
Route: YZF268095 63N20 YWY NCA17 ORT J124 GKN PTERS3
Notes:


Current Weather Information
CYZF 191600Z 10004KT 070V130 15SM SCT069 BKN230 13/09 A2998 RMK AC3CI2 SLP161
PANC 191553Z 00000KT 10SM BKN025 BKN200 09/02 A2995 RMK AO2 SLP142 FU BKN025 T00890022